Time;durP1;ratioP1;P1;durP2;ratioP2;P2;SDS_P1;SDS_P2;PMS_P1;PMS_P2;Temp;Humidity;BMP_temperature;BMP_pressure;BME280_temperature;BME280_humidity;BME280_pressure;Samples;Min_cycle;Max_cycle;Signal;HPM_P1;HPM_P2
2024/03/13 00:02:50;;;;;;;15.20;2.72;;;12.20;99.90;;;;;;6282306;28;20488;-87
2024/03/13 00:05:53;;;;;;;12.80;2.50;;;12.20;99.90;;;;;;6259451;28;20051;-86
2024/03/13 00:08:55;;;;;;;10.93;2.42;;;12.30;99.90;;;;;;6300954;28;20509;-86
2024/03/13 00:11:57;;;;;;;11.90;2.38;;;12.20;99.90;;;;;;6280823;28;20051;-85
2024/03/13 00:14:58;;;;;;;13.65;2.35;;;12.30;99.90;;;;;;6256736;28;20049;-89
2024/03/13 00:18:01;;;;;;;13.73;2.50;;;12.20;99.90;;;;;;6283004;28;20483;-87
2024/03/13 00:21:03;;;;;;;14.75;2.17;;;12.20;99.90;;;;;;6300224;28;20400;-87
2024/03/13 00:24:05;;;;;;;11.13;2.17;;;12.30;99.90;;;;;;6259029;28;20056;-87
2024/03/13 00:27:06;;;;;;;14.07;2.38;;;12.30;99.90;;;;;;6282708;28;20063;-86
2024/03/13 00:30:08;;;;;;;13.15;2.30;;;12.30;99.90;;;;;;6279073;28;20203;-87
2024/03/13 00:33:10;;;;;;;10.25;2.17;;;12.30;99.90;;;;;;6276489;28;20139;-87
2024/03/13 00:36:12;;;;;;;14.55;2.17;;;12.30;99.90;;;;;;6283999;28;20139;-87
2024/03/13 00:39:14;;;;;;;9.70;2.10;;;12.30;99.90;;;;;;6300111;28;20056;-85
2024/03/13 00:42:16;;;;;;;12.45;2.35;;;12.20;99.90;;;;;;6265726;28;20510;-86
2024/03/13 00:45:18;;;;;;;15.60;2.35;;;12.20;99.90;;;;;;6260581;28;20048;-88
2024/03/13 00:48:20;;;;;;;11.35;2.22;;;12.20;99.90;;;;;;6281965;28;20403;-86
2024/03/13 00:51:23;;;;;;;14.32;2.25;;;12.20;99.90;;;;;;6299983;28;20041;-86
2024/03/13 00:54:26;;;;;;;11.10;2.33;;;12.20;99.90;;;;;;6298543;28;20053;-86
2024/03/13 00:57:28;;;;;;;12.63;2.22;;;12.20;99.90;;;;;;6300215;28;20048;-86
2024/03/13 01:00:34;;;;;;;15.52;2.65;;;12.20;99.90;;;;;;6269614;28;20057;-87
2024/03/13 01:03:37;;;;;;;13.25;2.88;;;12.20;99.90;;;;;;6258420;28;20059;-87
2024/03/13 01:06:39;;;;;;;16.38;3.03;;;12.10;99.90;;;;;;6299375;28;20446;-85
2024/03/13 01:09:41;;;;;;;15.45;2.75;;;12.10;99.90;;;;;;6300043;28;20044;-85
2024/03/13 01:12:42;;;;;;;16.67;3.00;;;12.10;99.90;;;;;;6266934;28;20044;-86
2024/03/13 01:15:44;;;;;;;17.13;3.20;;;12.20;99.90;;;;;;6289774;28;20059;-83
2024/03/13 01:18:46;;;;;;;15.27;2.75;;;12.10;99.90;;;;;;6273926;28;20556;-86
2024/03/13 01:22:05;;;;;;;16.98;2.97;;;12.10;99.90;;;;;;6274643;28;20049;-86
2024/03/13 01:25:07;;;;;;;14.57;2.95;;;12.10;99.90;;;;;;6255882;28;20049;-86
2024/03/13 01:28:09;;;;;;;14.82;2.47;;;12.10;99.90;;;;;;6288453;28;20049;-82
2024/03/13 01:31:11;;;;;;;16.42;2.78;;;12.10;99.90;;;;;;6265399;28;20075;-85
2024/03/13 01:34:13;;;;;;;14.05;2.83;;;12.10;99.90;;;;;;6279429;28;20052;-86
2024/03/13 01:57:17;;;;;;;13.02;2.80;;;12.00;99.90;;;;;;6273062;28;20829;-86
2024/03/13 02:03:40;;;;;;;15.05;2.53;;;11.90;99.90;;;;;;6273152;28;20060;-86
2024/03/13 02:06:42;;;;;;;12.15;2.22;;;11.90;99.90;;;;;;6279260;28;20048;-86
2024/03/13 02:09:43;;;;;;;10.07;2.20;;;12.00;99.90;;;;;;6273224;28;20049;-86
2024/03/13 02:12:45;;;;;;;13.77;2.78;;;11.90;99.90;;;;;;6273715;28;20048;-85
2024/03/13 02:15:47;;;;;;;12.32;2.10;;;12.00;99.90;;;;;;6287236;28;20470;-85
2024/03/13 02:18:50;;;;;;;11.77;2.78;;;11.90;99.90;;;;;;6272714;28;20100;-85
2024/03/13 02:21:54;;;;;;;15.55;2.88;;;11.90;99.90;;;;;;6266958;28;20431;-85
2024/03/13 02:24:55;;;;;;;11.38;2.40;;;11.90;99.90;;;;;;6295261;28;20045;-86
2024/03/13 02:27:57;;;;;;;12.30;2.38;;;11.90;99.90;;;;;;6275336;28;20044;-85
2024/03/13 02:30:59;;;;;;;12.65;1.80;;;11.90;99.90;;;;;;6269132;28;20551;-85
2024/03/13 02:34:01;;;;;;;13.75;2.33;;;11.90;99.90;;;;;;6272588;28;20056;-85
2024/03/13 02:37:05;;;;;;;13.85;2.30;;;11.90;99.90;;;;;;6286666;28;20044;-84
2024/03/13 02:40:06;;;;;;;8.80;2.20;;;11.90;99.90;;;;;;6281709;28;20068;-86
2024/03/13 02:43:08;;;;;;;9.57;1.55;;;11.80;99.90;;;;;;6279939;28;20060;-82
2024/03/13 02:46:12;;;;;;;13.43;2.08;;;11.80;99.90;;;;;;6301339;28;20181;-85
2024/03/13 02:49:15;;;;;;;11.00;1.80;;;11.80;99.90;;;;;;6264547;28;20381;-85
2024/03/13 02:52:18;;;;;;;11.00;1.65;;;11.80;99.90;;;;;;6305475;28;20048;-86
2024/03/13 02:55:20;;;;;;;11.10;1.90;;;11.80;99.90;;;;;;6281195;28;20111;-86
2024/03/13 02:58:21;;;;;;;10.52;1.90;;;11.80;99.90;;;;;;6283613;28;20053;-86
2024/03/13 03:01:23;;;;;;;7.90;1.65;;;11.80;99.90;;;;;;6268427;28;20052;-85
2024/03/13 03:04:25;;;;;;;9.93;2.00;;;11.80;99.90;;;;;;6306132;28;20056;-86
2024/03/13 03:07:27;;;;;;;11.88;2.08;;;11.90;99.90;;;;;;6264029;28;20049;-85
2024/03/13 03:10:29;;;;;;;9.10;1.55;;;11.80;99.90;;;;;;6287938;28;20553;-86
2024/03/13 03:13:31;;;;;;;12.15;2.00;;;11.80;99.90;;;;;;6253788;28;20391;-87
2024/03/13 03:16:33;;;;;;;12.20;2.17;;;11.80;99.90;;;;;;6307349;28;20056;-86
2024/03/13 03:19:35;;;;;;;11.13;1.77;;;11.80;99.90;;;;;;6266805;28;20108;-87
2024/03/13 03:22:37;;;;;;;10.02;2.00;;;11.70;99.90;;;;;;6307870;28;20048;-84
2024/03/13 03:25:38;;;;;;;9.88;1.80;;;11.80;99.90;;;;;;6305832;28;20044;-87
2024/03/13 03:28:40;;;;;;;11.27;1.85;;;11.70;99.90;;;;;;6263681;28;20080;-88
2024/03/13 03:31:42;;;;;;;9.43;1.92;;;11.70;99.90;;;;;;6288972;28;20064;-87
2024/03/13 03:34:43;;;;;;;7.43;1.50;;;11.70;99.90;;;;;;6282129;28;20048;-87
2024/03/13 03:37:45;;;;;;;8.10;1.58;;;11.70;99.90;;;;;;6288400;28;20044;-87
2024/03/13 03:40:47;;;;;;;9.70;1.60;;;11.70;99.90;;;;;;6281569;28;20177;-87
2024/03/13 03:43:49;;;;;;;9.43;1.60;;;11.70;99.90;;;;;;6258626;28;20064;-87
2024/03/13 03:46:50;;;;;;;10.88;1.55;;;11.70;99.90;;;;;;6302100;28;20399;-85
2024/03/13 03:49:52;;;;;;;8.10;1.25;;;11.70;99.90;;;;;;6278337;28;20056;-87
2024/03/13 03:52:54;;;;;;;5.57;1.35;;;11.70;99.90;;;;;;6283873;28;20048;-87
2024/03/13 03:55:55;;;;;;;6.90;1.30;;;11.60;99.90;;;;;;6259070;28;20107;-87
2024/03/13 03:58:57;;;;;;;6.50;1.30;;;11.70;99.90;;;;;;6253889;28;20060;-86
2024/03/13 04:01:59;;;;;;;10.95;1.60;;;11.70;99.90;;;;;;6300485;28;20053;-86
2024/03/13 04:05:01;;;;;;;11.30;1.40;;;11.70;99.90;;;;;;6259546;28;20049;-87
2024/03/13 04:08:02;;;;;;;6.13;1.25;;;11.70;99.90;;;;;;6301585;28;20056;-85
2024/03/13 04:11:04;;;;;;;8.32;1.35;;;11.60;99.90;;;;;;6261238;28;20049;-87
2024/03/13 04:14:06;;;;;;;6.03;1.40;;;11.60;99.90;;;;;;6356879;23;20075;-86
2024/03/13 04:17:09;;;;;;;5.78;1.33;;;11.60;99.90;;;;;;6282353;28;20055;-86
2024/03/13 04:20:12;;;;;;;6.03;1.30;;;11.60;99.90;;;;;;6275893;28;20048;-86
2024/03/13 04:23:13;;;;;;;6.03;1.10;;;11.60;99.90;;;;;;6283398;28;20051;-87
2024/03/13 04:26:15;;;;;;;6.43;1.35;;;11.60;99.90;;;;;;6258288;28;20053;-87
2024/03/13 04:29:17;;;;;;;9.73;1.52;;;11.60;99.90;;;;;;6250249;28;20061;-86
2024/03/13 04:32:20;;;;;;;5.97;1.20;;;11.60;99.90;;;;;;6277835;28;20438;-87
2024/03/13 04:35:22;;;;;;;6.35;1.10;;;11.60;99.90;;;;;;6282256;28;20584;-85
2024/03/13 04:38:24;;;;;;;6.32;1.17;;;11.60;99.90;;;;;;6258483;28;20045;-86
2024/03/13 04:41:26;;;;;;;4.75;0.90;;;11.60;99.90;;;;;;6272272;28;20053;-86
2024/03/13 04:44:28;;;;;;;6.50;1.08;;;11.70;99.90;;;;;;6248991;28;20442;-84
2024/03/13 04:47:31;;;;;;;6.10;0.90;;;11.60;99.90;;;;;;6281456;28;20411;-85
2024/03/13 04:50:35;;;;;;;5.18;1.10;;;11.50;99.90;;;;;;6275986;28;20045;-86
2024/03/13 04:53:37;;;;;;;6.35;1.25;;;11.60;99.90;;;;;;6298758;28;20055;-86
2024/03/13 04:56:39;;;;;;;6.57;1.05;;;11.60;99.90;;;;;;6273508;28;20057;-86
2024/03/13 04:59:40;;;;;;;5.22;1.00;;;11.60;99.90;;;;;;6289304;28;20052;-86
2024/03/13 05:02:42;;;;;;;4.88;0.90;;;11.60;99.90;;;;;;6280924;28;20522;-85
2024/03/13 05:05:45;;;;;;;5.03;0.90;;;11.60;99.90;;;;;;6274459;28;20068;-85
2024/03/13 05:08:48;;;;;;;5.07;1.10;;;11.70;99.90;;;;;;6280594;28;20053;-85
2024/03/13 05:11:50;;;;;;;4.63;0.77;;;11.60;99.90;;;;;;6268582;28;20060;-85
2024/03/13 05:14:52;;;;;;;5.22;0.90;;;11.70;99.90;;;;;;6261325;28;20067;-86
2024/03/13 05:17:55;;;;;;;5.65;1.10;;;11.60;99.90;;;;;;6274401;28;20048;-86
2024/03/13 05:20:58;;;;;;;4.07;0.80;;;11.70;99.90;;;;;;6271588;28;20514;-85
2024/03/13 05:24:00;;;;;;;4.93;1.20;;;11.60;99.90;;;;;;6281433;28;20060;-85
2024/03/13 05:27:02;;;;;;;4.90;1.20;;;11.60;99.90;;;;;;6256930;28;20415;-85
2024/03/13 05:30:06;;;;;;;4.28;0.90;;;11.60;99.90;;;;;;6258203;28;20045;-84
2024/03/13 05:33:07;;;;;;;4.32;1.13;;;11.60;99.90;;;;;;6298225;28;20052;-85
2024/03/13 05:36:11;;;;;;;5.38;1.10;;;11.60;99.90;;;;;;6257033;28;20049;-86
2024/03/13 05:39:13;;;;;;;5.63;1.33;;;11.60;99.90;;;;;;6279990;28;20048;-86
2024/03/13 05:42:17;;;;;;;5.30;1.13;;;11.60;99.90;;;;;;6270085;28;20050;-84
2024/03/13 05:45:19;;;;;;;5.78;1.40;;;11.60;99.90;;;;;;6261638;28;20137;-86
2024/03/13 05:48:21;;;;;;;5.93;1.50;;;11.70;99.90;;;;;;6257014;28;20044;-84
2024/03/13 05:51:23;;;;;;;5.50;1.38;;;11.70;99.90;;;;;;6268576;28;20052;-86
2024/03/13 05:54:28;;;;;;;6.10;1.38;;;11.70;99.90;;;;;;6258036;28;20450;-86
2024/03/13 05:57:29;;;;;;;6.18;1.50;;;11.60;99.90;;;;;;6292049;28;20045;-86
2024/03/13 06:00:31;;;;;;;7.10;1.48;;;11.70;99.90;;;;;;6278543;28;20044;-83
2024/03/13 06:03:33;;;;;;;8.88;1.92;;;11.60;99.90;;;;;;6254396;28;20044;-84
2024/03/13 06:06:34;;;;;;;6.47;1.45;;;11.60;99.90;;;;;;6277813;28;20060;-84
2024/03/13 06:09:36;;;;;;;7.80;1.70;;;11.60;99.90;;;;;;6257211;28;20119;-85
2024/03/13 06:12:38;;;;;;;6.63;1.60;;;11.60;99.90;;;;;;6294814;28;20108;-86
2024/03/13 06:15:39;;;;;;;6.45;1.58;;;11.60;99.90;;;;;;6235868;28;20049;-85
2024/03/13 06:18:41;;;;;;;5.25;1.30;;;11.60;99.90;;;;;;6270465;28;20048;-85
2024/03/13 06:21:43;;;;;;;8.65;1.88;;;11.60;99.90;;;;;;6274031;28;20064;-85
2024/03/13 06:24:46;;;;;;;6.72;1.50;;;11.60;99.90;;;;;;6272611;28;20415;-85
2024/03/13 06:27:50;;;;;;;9.77;1.90;;;11.60;99.90;;;;;;6280403;28;20178;-87
2024/03/13 06:30:52;;;;;;;6.15;1.67;;;11.60;99.90;;;;;;6255209;28;20056;-85
2024/03/13 06:33:54;;;;;;;7.03;1.50;;;11.60;99.90;;;;;;6271895;28;20185;-86
2024/03/13 06:36:56;;;;;;;7.80;1.77;;;11.60;99.90;;;;;;6282130;28;20282;-87
2024/03/13 06:39:58;;;;;;;6.78;1.73;;;11.60;99.90;;;;;;6269169;28;20535;-87
2024/03/13 06:42:59;;;;;;;8.80;1.85;;;11.60;99.90;;;;;;6272019;28;20048;-87
2024/03/13 06:46:03;;;;;;;7.30;1.80;;;11.60;99.90;;;;;;6276392;28;20080;-87
2024/03/13 06:49:05;;;;;;;12.07;1.98;;;11.60;99.90;;;;;;6254836;28;20053;-91
2024/03/13 06:52:12;;;;;;;6.85;1.58;;;11.60;99.90;;;;;;6278841;28;20052;-88
2024/03/13 06:55:14;;;;;;;9.77;2.17;;;11.60;99.90;;;;;;6244888;28;20527;-88
2024/03/13 06:58:16;;;;;;;11.98;1.95;;;11.70;99.90;;;;;;6251813;28;20420;-87
2024/03/13 07:01:18;;;;;;;9.57;2.17;;;11.70;99.90;;;;;;6269418;28;20515;-87
2024/03/13 07:04:22;;;;;;;12.60;2.13;;;11.70;99.90;;;;;;6276201;28;20103;-88
2024/03/13 07:07:24;;;;;;;10.70;1.73;;;11.70;99.90;;;;;;6251616;28;20503;-88
2024/03/13 07:10:25;;;;;;;9.40;2.00;;;11.70;99.90;;;;;;6292051;28;20052;-87
2024/03/13 07:13:27;;;;;;;12.20;2.15;;;11.70;99.90;;;;;;6245240;28;20922;-87
2024/03/13 07:16:30;;;;;;;9.23;2.30;;;11.70;99.90;;;;;;6251911;28;20547;-88
2024/03/13 07:19:33;;;;;;;11.43;2.20;;;11.70;99.90;;;;;;6293751;28;20049;-88
2024/03/13 07:22:35;;;;;;;7.03;1.83;;;11.80;99.90;;;;;;6271281;28;20056;-87
2024/03/13 07:25:37;;;;;;;11.98;2.67;;;11.80;99.90;;;;;;6279157;28;20138;-86
2024/03/13 07:28:39;;;;;;;10.90;2.75;;;11.80;99.90;;;;;;6271863;28;20129;-86
2024/03/13 07:31:41;;;;;;;9.32;2.28;;;11.80;99.90;;;;;;6257437;28;20057;-87
2024/03/13 07:34:44;;;;;;;7.60;2.58;;;11.90;99.90;;;;;;6298295;28;20055;-86
2024/03/13 07:37:46;;;;;;;10.82;2.70;;;11.90;99.90;;;;;;6256280;28;20067;-87
2024/03/13 07:40:47;;;;;;;10.55;2.97;;;11.90;99.90;;;;;;6298030;28;20066;-88
2024/03/13 07:43:49;;;;;;;11.25;3.40;;;11.90;99.90;;;;;;6274328;28;20044;-87
2024/03/13 07:46:51;;;;;;;11.82;3.33;;;12.00;99.90;;;;;;6274892;28;20522;-89
2024/03/13 07:49:53;;;;;;;8.82;3.28;;;12.00;99.90;;;;;;6297765;28;20064;-87
2024/03/13 07:52:54;;;;;;;8.93;3.10;;;12.00;99.90;;;;;;6274818;28;20049;-87
2024/03/13 07:55:56;;;;;;;11.98;3.80;;;12.10;99.90;;;;;;6297637;28;20138;-88
2024/03/13 07:59:00;;;;;;;10.77;2.88;;;12.10;99.90;;;;;;6266348;28;20048;-88
2024/03/13 08:02:01;;;;;;;9.00;2.70;;;12.10;99.90;;;;;;6255950;28;20045;-89
2024/03/13 08:05:03;;;;;;;7.68;2.88;;;12.20;99.90;;;;;;6279380;28;20053;-87
2024/03/13 08:08:05;;;;;;;9.75;2.78;;;12.30;99.90;;;;;;6273266;28;20057;-88
2024/03/13 08:11:24;;;;;;;6.22;2.30;;;12.30;99.90;;;;;;6249809;28;20033;-87
2024/03/13 08:14:44;;;;;;;8.60;2.15;;;12.30;99.90;;;;;;6261181;28;20056;-83
2024/03/13 08:18:04;;;;;;;12.57;2.60;;;12.40;99.90;;;;;;6266263;28;20476;-86
2024/03/13 08:21:27;;;;;;;8.15;1.60;;;12.40;99.90;;;;;;6257614;28;20113;-86
2024/03/13 08:24:46;;;;;;;4.97;1.63;;;12.30;99.90;;;;;;6256975;28;20041;-87
2024/03/13 08:28:12;;;;;;;6.20;1.70;;;12.40;99.90;;;;;;6232939;28;20410;-82
2024/03/13 08:31:34;;;;;;;7.15;1.50;;;12.40;99.90;;;;;;6271927;28;20127;-83
2024/03/13 08:34:54;;;;;;;7.28;1.25;;;12.40;99.90;;;;;;6220348;28;20038;-86
2024/03/13 08:38:13;;;;;;;7.95;1.33;;;12.50;99.90;;;;;;6223747;28;20041;-90
2024/03/13 08:41:32;;;;;;;6.78;1.30;;;12.60;99.90;;;;;;6224632;28;20045;-91
2024/03/13 08:44:51;;;;;;;5.38;1.02;;;12.60;99.90;;;;;;6237471;28;20033;-88
2024/03/13 08:48:11;;;;;;;6.70;1.20;;;12.70;99.90;;;;;;6226640;28;20054;-90
2024/03/13 08:51:30;;;;;;;6.78;1.20;;;12.70;99.90;;;;;;6227582;28;20037;-91
2024/03/13 08:54:52;;;;;;;4.38;1.10;;;12.70;99.90;;;;;;6254022;28;20041;-93
2024/03/13 08:58:15;;;;;;;6.72;1.10;;;12.70;99.90;;;;;;6228546;28;20439;-90
2024/03/13 09:01:36;;;;;;;8.77;1.27;;;12.60;99.90;;;;;;6272456;28;20473;-88
2024/03/13 09:04:55;;;;;;;6.22;1.10;;;12.60;99.90;;;;;;6207752;28;20037;-90
2024/03/13 09:08:14;;;;;;;5.15;1.13;;;12.50;99.90;;;;;;6247745;28;20068;-89
2024/03/13 09:11:21;;;;;;;4.40;1.00;;;12.60;99.90;;;;;;6206418;28;20054;-89
2024/03/13 09:14:26;;;;;;;5.72;1.17;;;12.60;99.90;;;;;;6224875;28;20057;-89
2024/03/13 09:17:28;;;;;;;2.67;0.90;;;12.60;99.90;;;;;;6254776;28;20052;-89
2024/03/13 09:20:29;;;;;;;3.50;1.35;;;12.60;99.90;;;;;;6230235;28;20119;-89
2024/03/13 09:23:31;;;;;;;5.13;1.05;;;12.60;99.90;;;;;;6253327;28;20045;-89
2024/03/13 09:26:34;;;;;;;4.88;1.25;;;12.60;99.90;;;;;;6255549;28;20095;-89
2024/03/13 09:29:36;;;;;;;7.15;1.38;;;12.70;99.90;;;;;;6227333;28;20072;-89
2024/03/13 09:32:38;;;;;;;6.35;1.38;;;12.60;99.90;;;;;;6246211;28;20402;-89
2024/03/13 09:35:39;;;;;;;6.38;1.30;;;12.70;99.90;;;;;;6268827;28;20053;-85
2024/03/13 09:38:41;;;;;;;5.60;1.67;;;12.70;99.90;;;;;;6251344;28;20073;-91
2024/03/13 09:41:44;;;;;;;5.47;1.58;;;12.60;99.90;;;;;;6245062;28;20095;-85
2024/03/13 09:44:46;;;;;;;9.15;1.80;;;12.60;99.90;;;;;;6267941;28;20045;-88
2024/03/13 09:47:49;;;;;;;6.75;1.88;;;12.60;99.90;;;;;;6245241;28;20131;-94
2024/03/13 09:50:51;;;;;;;10.38;2.13;;;12.60;99.90;;;;;;6273172;28;20091;-92
2024/03/13 09:53:55;;;;;;;6.68;1.73;;;12.60;99.90;;;;;;6254548;28;20198;-94
2024/03/13 09:56:57;;;;;;;7.00;1.80;;;12.50;99.90;;;;;;6250073;28;20069;-94
2024/03/13 10:00:01;;;;;;;6.97;1.70;;;12.60;99.90;;;;;;6239897;28;20488;-88
2024/03/13 10:03:03;;;;;;;8.15;1.67;;;12.80;99.90;;;;;;6230487;28;20515;-86
2024/03/13 10:06:05;;;;;;;8.57;1.40;;;12.80;99.90;;;;;;6253705;28;20469;-91
2024/03/13 10:09:11;;;;;;;8.95;1.52;;;12.90;99.90;;;;;;6232570;28;20107;-92
2024/03/13 10:12:13;;;;;;;8.18;1.40;;;12.90;99.90;;;;;;6232347;28;20056;-89
2024/03/13 10:15:16;;;;;;;6.43;1.40;;;13.00;99.90;;;;;;6241649;28;20072;-88
2024/03/13 10:18:18;;;;;;;6.53;1.45;;;12.90;99.90;;;;;;6228124;28;20049;-86
2024/03/13 10:21:20;;;;;;;6.85;1.50;;;13.00;99.90;;;;;;6250367;28;20483;-82
2024/03/13 10:24:25;;;;;;;7.95;1.70;;;13.00;99.90;;;;;;6255388;28;20187;-86
2024/03/13 10:27:27;;;;;;;6.88;1.58;;;13.00;99.90;;;;;;6229196;28;20049;-90
2024/03/13 10:30:29;;;;;;;10.43;1.48;;;13.00;99.90;;;;;;6251567;28;20063;-82
2024/03/13 10:33:31;;;;;;;7.80;1.75;;;13.00;99.90;;;;;;6227473;28;20061;-86
2024/03/13 10:36:33;;;;;;;8.63;1.30;;;12.90;99.90;;;;;;6231025;28;20132;-85
2024/03/13 10:39:35;;;;;;;8.25;1.42;;;12.90;99.90;;;;;;6222469;28;20054;-88
2024/03/13 10:42:37;;;;;;;9.32;1.60;;;13.00;99.90;;;;;;6221826;28;20587;-92
2024/03/13 10:45:39;;;;;;;9.23;1.50;;;13.00;99.90;;;;;;6211495;28;20061;-87
2024/03/13 10:48:41;;;;;;;10.32;1.92;;;13.00;99.90;;;;;;6223712;28;20098;-89
2024/03/13 10:51:43;;;;;;;9.27;1.92;;;12.90;99.90;;;;;;6223264;28;20042;-90
2024/03/13 10:54:45;;;;;;;10.45;1.80;;;12.90;99.90;;;;;;6203770;28;20053;-87
2024/03/13 10:57:47;;;;;;;6.97;1.52;;;12.90;99.90;;;;;;6225090;28;20057;-91
2024/03/13 11:00:49;;;;;;;8.50;1.50;;;12.80;99.90;;;;;;6251724;28;20053;-88
2024/03/13 11:03:51;;;;;;;11.02;1.63;;;12.70;99.90;;;;;;6227082;28;20538;-90
2024/03/13 11:06:53;;;;;;;8.73;1.77;;;12.70;99.90;;;;;;6212366;28;20026;-89
2024/03/13 11:09:54;;;;;;;5.80;1.40;;;12.70;99.90;;;;;;6225500;28;20056;-90
2024/03/13 11:12:56;;;;;;;9.25;1.83;;;12.70;99.90;;;;;;6235588;28;20061;-83
2024/03/13 11:15:58;;;;;;;6.72;1.40;;;12.80;99.90;;;;;;6251391;28;20094;-83
2024/03/13 11:19:00;;;;;;;6.60;1.50;;;13.00;99.90;;;;;;6274064;28;20053;-90
2024/03/13 11:22:03;;;;;;;10.35;1.55;;;13.20;99.90;;;;;;6206599;28;20085;-84
2024/03/13 11:25:06;;;;;;;10.95;1.92;;;13.20;99.90;;;;;;6245024;28;20057;-84
2024/03/13 11:28:08;;;;;;;6.63;1.55;;;13.40;99.90;;;;;;6232639;28;20049;-81
2024/03/13 11:31:09;;;;;;;10.18;2.00;;;13.50;99.90;;;;;;6230323;28;20049;-82
2024/03/13 11:34:11;;;;;;;5.63;1.48;;;13.40;99.90;;;;;;6206373;28;20054;-87
2024/03/13 11:37:13;;;;;;;9.88;1.70;;;13.40;99.90;;;;;;6274385;28;20057;-90
2024/03/13 11:40:18;;;;;;;5.22;1.50;;;13.40;99.90;;;;;;6250221;28;20049;-92
2024/03/13 11:43:21;;;;;;;6.95;1.60;;;13.20;99.90;;;;;;6248016;28;20056;-91
2024/03/13 11:46:33;;;;;;;6.75;1.45;;;13.30;99.90;;;;;;6232696;28;20061;-85
2024/03/13 11:49:35;;;;;;;8.32;1.70;;;13.20;99.90;;;;;;6223239;28;20109;-86
2024/03/13 11:52:39;;;;;;;7.80;1.80;;;13.20;99.90;;;;;;6271881;28;20416;-87
2024/03/13 11:55:41;;;;;;;5.78;1.77;;;13.20;99.90;;;;;;6271992;28;20064;-84
2024/03/13 11:58:44;;;;;;;4.25;1.60;;;13.30;99.90;;;;;;6224362;28;20052;-86
2024/03/13 12:01:46;;;;;;;6.22;1.88;;;13.40;99.90;;;;;;6230716;28;20065;-86
2024/03/13 12:04:47;;;;;;;7.72;1.60;;;13.30;99.90;;;;;;6253706;28;20396;-88
2024/03/13 12:07:49;;;;;;;6.70;2.00;;;13.30;99.90;;;;;;6253592;28;20454;-83
2024/03/13 12:10:51;;;;;;;6.90;1.80;;;13.20;99.90;;;;;;6205359;28;20050;-83
2024/03/13 12:13:54;;;;;;;6.18;1.80;;;13.20;99.90;;;;;;6234757;28;20111;-87
2024/03/13 12:16:56;;;;;;;11.00;2.50;;;13.10;99.90;;;;;;6253804;28;20133;-84
2024/03/13 12:19:57;;;;;;;6.80;2.20;;;13.10;99.90;;;;;;6246655;28;20073;-84
2024/03/13 12:22:59;;;;;;;7.78;2.17;;;13.20;99.90;;;;;;6268630;28;20068;-87
2024/03/13 12:26:01;;;;;;;9.27;2.40;;;13.20;97.70;;;;;;6271993;28;20143;-84
2024/03/13 12:29:03;;;;;;;9.20;2.42;;;13.20;98.60;;;;;;6257923;28;20057;-90
2024/03/13 12:32:05;;;;;;;9.00;2.42;;;13.20;97.80;;;;;;6246513;28;20512;-84
2024/03/13 12:35:06;;;;;;;9.52;2.55;;;13.20;97.30;;;;;;6269740;28;20060;-82
2024/03/13 12:38:08;;;;;;;7.45;2.25;;;13.20;98.80;;;;;;6247445;28;20065;-84
2024/03/13 12:41:11;;;;;;;7.88;2.00;;;13.20;99.10;;;;;;6270759;28;20618;-85
2024/03/13 12:44:13;;;;;;;8.25;2.08;;;13.20;98.40;;;;;;6236480;28;20061;-83
2024/03/13 12:47:16;;;;;;;7.40;2.13;;;13.10;98.10;;;;;;6246839;28;20049;-88
2024/03/13 12:50:18;;;;;;;11.07;2.67;;;13.10;98.10;;;;;;6251962;28;20591;-86
2024/03/13 12:53:20;;;;;;;7.13;2.30;;;13.10;99.10;;;;;;6245967;28;20515;-82
2024/03/13 12:56:22;;;;;;;8.60;2.42;;;13.10;97.50;;;;;;6252644;28;20061;-88
2024/03/13 12:59:24;;;;;;;9.73;2.35;;;13.20;98.60;;;;;;6227534;28;20063;-83
2024/03/13 13:02:27;;;;;;;8.23;2.10;;;13.20;97.90;;;;;;6228001;28;20046;-84
2024/03/13 13:05:30;;;;;;;9.07;2.50;;;13.30;97.00;;;;;;6270029;28;20052;-82
2024/03/13 13:08:32;;;;;;;6.60;2.10;;;13.40;97.50;;;;;;6269956;28;20055;-83
2024/03/13 13:11:34;;;;;;;8.23;2.42;;;13.40;96.30;;;;;;6221160;28;20050;-84
2024/03/13 13:14:35;;;;;;;7.82;2.05;;;13.50;94.00;;;;;;6216773;28;20064;-82
2024/03/13 13:17:37;;;;;;;8.43;2.17;;;13.50;92.20;;;;;;6244108;28;20522;-87
2024/03/13 13:20:42;;;;;;;6.38;2.00;;;13.60;90.60;;;;;;6222884;28;20041;-85
2024/03/13 13:23:44;;;;;;;7.72;1.90;;;13.80;91.20;;;;;;6250857;28;20057;-82
2024/03/13 13:26:46;;;;;;;6.70;2.00;;;13.90;89.40;;;;;;6222022;28;20255;-86
2024/03/13 13:29:48;;;;;;;7.45;1.90;;;14.00;87.60;;;;;;6228237;28;20060;-86
2024/03/13 13:32:52;;;;;;;8.57;2.42;;;14.00;77.60;;;;;;6222356;28;20045;-85
2024/03/13 13:35:54;;;;;;;7.30;1.98;;;14.10;79.70;;;;;;6247345;28;20049;-85
2024/03/13 13:38:56;;;;;;;8.60;1.85;;;14.00;72.80;;;;;;6221939;28;20053;-85
2024/03/13 13:41:58;;;;;;;5.50;1.92;;;14.10;75.30;;;;;;6245355;28;20140;-85
2024/03/13 13:44:59;;;;;;;6.80;1.85;;;14.10;78.10;;;;;;6211477;28;20147;-85
2024/03/13 13:48:01;;;;;;;7.57;1.80;;;14.10;69.80;;;;;;6244711;28;20052;-86
2024/03/13 13:51:04;;;;;;;6.40;1.83;;;14.20;75.30;;;;;;6219713;28;20503;-86
2024/03/13 13:54:06;;;;;;;6.45;1.95;;;14.00;69.60;;;;;;6244614;28;20052;-87
2024/03/13 13:57:08;;;;;;;8.65;2.20;;;14.00;70.80;;;;;;6221476;28;20552;-88
2024/03/13 14:00:12;;;;;;;9.55;2.40;;;14.00;70.40;;;;;;6201702;28;20057;-88
2024/03/13 14:03:14;;;;;;;6.95;1.92;;;14.00;73.10;;;;;;6244594;28;20136;-87
2024/03/13 14:06:16;;;;;;;7.22;2.30;;;14.00;70.00;;;;;;6220625;28;20119;-87
2024/03/13 14:09:19;;;;;;;8.82;2.15;;;14.00;77.90;;;;;;6220590;28;20140;-88
2024/03/13 14:12:32;;;;;;;10.55;2.40;;;14.00;77.40;;;;;;6195903;28;20054;-87
2024/03/13 14:15:34;;;;;;;10.57;2.38;;;13.90;75.10;;;;;;6209193;28;20065;-87
2024/03/13 14:18:36;;;;;;;8.93;2.20;;;13.90;75.20;;;;;;6251369;28;20857;-87
2024/03/13 14:21:39;;;;;;;9.32;2.67;;;13.90;66.00;;;;;;6246269;28;20049;-88
2024/03/13 14:24:41;;;;;;;5.95;2.03;;;13.90;66.90;;;;;;6236411;28;20057;-90
2024/03/13 14:27:43;;;;;;;7.18;2.10;;;13.80;68.40;;;;;;6251487;28;20052;-84
2024/03/13 14:30:45;;;;;;;7.65;2.08;;;13.70;69.70;;;;;;6241255;28;20056;-88
2024/03/13 14:33:46;;;;;;;11.82;2.35;;;13.90;75.10;;;;;;6205105;28;20054;-88
2024/03/13 14:36:48;;;;;;;6.70;1.95;;;13.90;65.70;;;;;;6268492;28;20049;-88
2024/03/13 14:39:51;;;;;;;7.00;2.05;;;14.00;58.20;;;;;;6245545;28;20054;-88
2024/03/13 14:42:53;;;;;;;6.88;1.80;;;14.20;44.50;;;;;;6268428;28;20191;-87
2024/03/13 14:45:55;;;;;;;7.18;1.70;;;14.20;44.40;;;;;;6239939;28;20049;-90
2024/03/13 14:48:57;;;;;;;6.75;1.63;;;14.30;45.20;;;;;;6203913;28;20060;-91
2024/03/13 14:51:58;;;;;;;8.82;1.55;;;14.30;38.70;;;;;;6270092;28;20139;-89
2024/03/13 14:55:00;;;;;;;9.30;1.50;;;14.20;40.00;;;;;;6247181;28;20064;-90
2024/03/13 14:58:03;;;;;;;6.22;1.58;;;14.10;43.50;;;;;;6251623;28;20156;-88
2024/03/13 15:01:06;;;;;;;4.68;1.30;;;14.10;51.50;;;;;;6208547;28;20057;-89
2024/03/13 15:04:08;;;;;;;6.72;1.55;;;14.10;49.50;;;;;;6251355;28;20139;-87
2024/03/13 15:07:10;;;;;;;8.38;1.40;;;14.00;54.80;;;;;;6229007;28;20057;-86
2024/03/13 15:10:14;;;;;;;8.80;1.60;;;14.00;54.40;;;;;;6271066;28;20057;-88
2024/03/13 15:13:15;;;;;;;5.82;1.40;;;14.10;60.40;;;;;;6247071;28;20115;-77
2024/03/13 15:16:17;;;;;;;3.90;1.15;;;14.20;67.20;;;;;;6256872;28;20052;-89
2024/03/13 15:19:19;;;;;;;8.50;1.55;;;14.20;68.40;;;;;;6248027;28;20484;-87
2024/03/13 15:22:21;;;;;;;9.10;1.67;;;14.20;63.10;;;;;;6252723;28;20057;-88
2024/03/13 15:25:23;;;;;;;10.85;2.17;;;14.20;70.00;;;;;;6250475;28;20053;-89
2024/03/13 15:28:24;;;;;;;7.35;1.70;;;14.20;66.80;;;;;;6224282;28;20053;-90
2024/03/13 15:31:26;;;;;;;8.57;1.60;;;14.10;69.20;;;;;;6252714;28;20105;-88
2024/03/13 15:34:30;;;;;;;7.30;1.80;;;14.00;67.70;;;;;;6202574;28;20073;-88
2024/03/13 15:37:33;;;;;;;6.85;1.70;;;13.90;70.70;;;;;;6249940;28;20081;-87
2024/03/13 15:40:35;;;;;;;9.52;1.77;;;13.90;76.80;;;;;;6244934;28;20053;-87
2024/03/13 15:43:37;;;;;;;8.50;1.65;;;13.90;79.40;;;;;;6247541;28;20405;-88
2024/03/13 15:46:39;;;;;;;7.28;1.65;;;13.80;75.10;;;;;;6247881;28;20068;-86
2024/03/13 15:49:40;;;;;;;8.30;1.80;;;13.80;75.10;;;;;;6272620;28;20053;-87
2024/03/13 15:52:42;;;;;;;7.53;1.77;;;13.90;76.80;;;;;;6248330;28;20045;-87
2024/03/13 15:55:43;;;;;;;5.85;1.50;;;13.80;75.10;;;;;;6272019;28;20053;-89
2024/03/13 15:58:45;;;;;;;9.07;1.92;;;13.90;71.90;;;;;;6246629;28;20056;-88
2024/03/13 16:01:47;;;;;;;8.30;2.38;;;13.80;77.90;;;;;;6249410;28;20050;-88
2024/03/13 16:04:48;;;;;;;9.35;1.90;;;13.70;82.80;;;;;;6273556;28;20492;-86
2024/03/13 16:07:50;;;;;;;8.38;1.80;;;13.60;86.20;;;;;;6247261;28;20415;-86
2024/03/13 16:10:52;;;;;;;6.10;1.80;;;13.50;89.10;;;;;;6271606;28;20060;-88
2024/03/13 16:13:55;;;;;;;10.18;1.98;;;13.40;88.90;;;;;;6202749;28;20468;-84